Flight Track Log - Related Links

Times and Time Zones

All times are in EDT time to prevent confusion due to time zone crossing. See the N9885W flight status page for this flight to view local times or setup timezone preferences in your user account.

Time Position Orientation Groundspeed Altitude Reporting Facility
EDT Latitude Longitude Course Direction KTS MPH feet Rate Location/Type
Mon 07:25:50 PM 29.0508 -98.4247 173° South 73 84 6,500  Level Houston Center
Mon 07:26:51 PM 29.0272 -98.4206 171° South 77 89 6,700 219 Climbing Houston Center
Mon 07:28:07 PM 29.0022 -98.4111 162° South 86 99 7,000 304 Climbing Houston Center
Mon 07:29:09 PM 28.9778 -98.4086 175° South 78 90 7,400 290 Climbing Houston Center
Mon 07:30:11 PM 28.9547 -98.4042 170° South 82 94 7,600 194 Climbing Houston Center
Mon 07:31:00 PM 29.3353 -98.4331 173° South  Level Estimated
Mon 07:31:13 PM 28.9339 -98.3989 167° South 78 90 7,800  Level Houston Center
Mon 07:32:15 PM 28.9092 -98.3950 172° South 87 100 8,000 195 Climbing Houston Center
Mon 07:33:16 PM 28.8842 -98.3908 172° South 88 101 8,200 146 Climbing Houston Center
Mon 07:34:18 PM 28.8647 -98.3856 167° South 84 97 8,300 97 Climbing Houston Center
Mon 07:35:20 PM 28.8428 -98.3828 174° South 80 92 8,400 194 Climbing Houston Center
Mon 07:36:22 PM 28.8131 -98.3758 168° South 89 102 8,700 145 Climbing Houston Center
Mon 07:37:24 PM 28.7911 -98.3778 184° South 82 94 8,700 97 Level Houston Center
Mon 07:38:26 PM 28.7672 -98.3739 172° South 84 97 8,900 145 Climbing Houston Center
Mon 07:39:28 PM 28.7433 -98.3706 173° South 87 100 9,000 98 Climbing Houston Center
Mon 07:40:29 PM 28.7200 -98.3667 172° South 86 99 9,100 98 Climbing Houston Center
Mon 07:41:31 PM 28.6942 -98.3622 171° South 91 105 9,200 97 Climbing Houston Center
Mon 07:42:33 PM 28.6703 -98.3600 175° South 89 102 9,300 48 Climbing Houston Center
Mon 07:43:35 PM 28.6386 -98.3550 172° South 93 107 9,300 -97 Level Houston Center
Mon 07:44:37 PM 28.6103 -98.3475 167° South 99 114 9,100 -145 Descending Houston Center
Mon 07:45:39 PM 28.5831 -98.3389 164° South 101 116 9,000 -97 Descending Houston Center
Mon 07:46:41 PM 28.5547 -98.3358 175° South 102 117 8,900 -146 Descending Houston Center
Mon 07:47:42 PM 28.5272 -98.3350 178° South 101 116 8,700 -341 Descending Houston Center
Mon 07:48:44 PM 28.4961 -98.3344 179° South 104 120 8,200 -532 Descending Houston Center
Mon 07:49:46 PM 28.4617 -98.3331 178° South 105 121 7,600 -339 Descending Houston Center
Mon 07:50:48 PM 28.4361 -98.3283 171° South 101 116 7,500 -97 Descending Houston Center
Mon 07:51:50 PM 28.4092 -98.3144 156° South 101 116 7,400 -49 Descending Houston Center
Mon 07:52:51 PM 28.3836 -98.3117 175° South 98 113 7,400 -49 Level Houston Center
Mon 07:53:53 PM 28.3597 -98.3097 176° South 93 107 7,300 -48 Descending Houston Center
Mon 07:54:55 PM 28.3361 -98.3039 168° South 89 102 7,300  Level Houston Center
Mon 07:55:57 PM 28.3131 -98.3000 172° South 87 100 7,300  Level Houston Center
Mon 07:56:59 PM 28.2858 -98.2922 166° South 85 98 7,300 -48 Level Houston Center
Mon 07:58:01 PM 28.2628 -98.2875 170° South 84 97 7,200  Descending Houston Center
Mon 07:59:03 PM 28.2389 -98.2828 170° South 85 98 7,300  Climbing Houston Center
Mon 08:00:04 PM 28.2172 -98.2786 170° South 83 96 7,200 -49 Descending Houston Center
Mon 08:01:06 PM 28.1939 -98.2742 170° South 83 96 7,200  Level Houston Center
Mon 08:02:08 PM 28.1711 -98.2731 178° South 83 96 7,200 -48 Level Houston Center
Mon 08:03:10 PM 28.1433 -98.2675 170° South 84 97 7,100  Descending Houston Center
Mon 08:04:12 PM 28.1197 -98.2633 171° South 84 97 7,200 48 Climbing Houston Center
Mon 08:05:14 PM 28.0978 -98.2611 175° South 82 94 7,200 -48 Level Houston Center
Mon 08:06:16 PM 28.0756 -98.2581 173° South 80 92 7,100  Descending Houston Center
Mon 08:07:18 PM 28.0522 -98.2558 175° South 83 96 7,200 49 Climbing Houston Center
Mon 08:08:19 PM 28.0297 -98.2569 182° South 82 94 7,200 -49 Level Houston Center
Mon 08:09:21 PM 28.0053 -98.2544 175° South 85 98 7,100 -48 Descending Houston Center
Mon 08:10:23 PM 27.9778 -98.2594 189° South 86 99 7,100  Level Houston Center
Mon 08:11:25 PM 27.9550 -98.2600 181° South 83 96 7,100  Level Houston Center
Mon 08:12:27 PM 27.9325 -98.2536 166° South 82 94 7,100  Level Houston Center
Mon 08:13:29 PM 27.9108 -98.2489 169° South 81 93 7,100 49 Level Houston Center
Mon 08:14:30 PM 27.8872 -98.2453 172° South 82 94 7,200 -49 Climbing Houston Center
Mon 08:15:32 PM 27.8619 -98.2431 176° South 85 98 7,000 -97 Descending Houston Center
Mon 08:16:34 PM 27.8350 -98.2378 170° South 87 100 7,000 48 Level Houston Center
Mon 08:17:36 PM 27.8128 -98.2353 174° South 89 102 7,100 -48 Climbing Houston Center
Mon 08:18:38 PM 27.7836 -98.2342 178° South 88 101 6,900 -49 Descending Houston Center
Mon 08:19:39 PM 27.7594 -98.2333 178° South 88 101 7,000 49 Climbing Houston Center
Mon 08:20:41 PM 27.7372 -98.2306 174° South 85 98 7,000  Level Houston Center
Mon 08:21:43 PM 27.7156 -98.2258 169° South 82 94 7,000  Level Houston Center
Mon 08:22:45 PM 27.6914 -98.2222 172° South 83 96 7,000  Level Houston Center
Mon 08:23:47 PM 27.6675 -98.2175 170° South 85 98 7,000  Level Houston Center
Mon 08:24:48 PM 27.6394 -98.2117 170° South 85 98 7,000  Level Houston Center
Mon 08:25:50 PM 27.6164 -98.2103 177° South 84 97 7,000  Level Houston Center
Mon 08:26:52 PM 27.5925 -98.2058 171° South 85 98 7,000  Level Houston Center
Mon 08:27:54 PM 27.5689 -98.2025 173° South 86 99 7,000  Level Houston Center
Mon 08:28:56 PM 27.5447 -98.2003 175° South 86 99 7,000 49 Level Houston Center
Mon 08:29:57 PM 27.5203 -98.1989 177° South 86 99 7,100 -49 Climbing Houston Center
Mon 08:30:59 PM 27.4958 -98.1933 169° South 87 100 6,900 -97 Descending Houston Center
Mon 08:32:01 PM 27.4669 -98.1892 173° South 88 101 6,900 48 Level Houston Center
Mon 08:33:03 PM 27.4425 -98.1917 185° South 87 100 7,000  Climbing Houston Center
Mon 08:34:04 PM 27.4197 -98.1914 179° South 85 98 6,900 -98 Descending Houston Center
Mon 08:35:06 PM 27.3961 -98.1869 171° South 85 98 6,800  Descending Houston Center
Mon 08:36:08 PM 27.3711 -98.1797 166° South 88 101 6,900 48 Climbing Houston Center
Mon 08:37:10 PM 27.3467 -98.1764 173° South 88 101 6,900  Level Houston Center
Mon 08:38:12 PM 27.3219 -98.1733 174° South 88 101 6,900  Level Houston Center
Mon 08:39:13 PM 27.2931 -98.1664 168° South 89 102 6,900 49 Level Houston Center
Mon 08:40:15 PM 27.2689 -98.1594 166° South 89 102 7,000 48 Climbing Houston Center
Mon 08:41:17 PM 27.2442 -98.1567 174° South 88 101 7,000  Level Houston Center
Mon 08:42:19 PM 27.2194 -98.1531 173° South 88 101 7,000  Level Houston Center
Mon 08:43:21 PM 27.1939 -98.1475 169° South 90 104 7,000  Level Houston Center
Mon 08:44:22 PM 27.1683 -98.1386 163° South 93 107 7,000  Level Houston Center
Mon 08:45:24 PM 27.1411 -98.1267 159° South 92 106 7,000 -48 Level Houston Center
Mon 08:46:26 PM 27.1158 -98.1217 170° South 90 104 6,900 48 Descending Houston Center
Mon 08:47:28 PM 27.0922 -98.1164 169° South 89 102 7,100 49 Climbing Houston Center
Mon 08:48:29 PM 27.0656 -98.1139 175° South 90 104 7,000 -49 Descending Houston Center
Mon 08:49:31 PM 27.0400 -98.1139 180° South 92 106 7,000  Level Houston Center
Mon 08:50:33 PM 27.0122 -98.1167 185° South 97 112 7,000 48 Level Houston Center
Mon 08:51:35 PM 26.9883 -98.1158 178° South 91 105 7,100  Climbing Houston Center
Mon 08:52:36 PM 26.9647 -98.1097 167° South 88 101 7,000 -49 Descending Houston Center
Mon 08:53:38 PM 26.9336 -98.1008 166° South 95 109 7,000 68 Level Houston Center
Mon 08:54:04 PM 26.9239 -98.0947 151° Southeast 94 108 7,100 97 Climbing Houston Center
Mon 08:54:40 PM 26.9139 -98.0850 139° Southeast 90 104 7,100 -98 Level Houston Center
Mon 08:55:05 PM 26.9031 -98.0786 152° Southeast 86 99 7,000 -98 Descending Houston Center
Mon 08:55:41 PM 26.8914 -98.0742 161° South 90 104 7,000 200 Level Houston Center
Mon 08:56:05 PM 26.8797 -98.0744 181° South 95 109 7,200 194 Climbing Houston Center
Mon 08:56:43 PM 26.8669 -98.0725 172° South 88 101 7,200 98 Level Houston Center
Mon 08:57:06 PM 26.8539 -98.0708 174° South 87 100 7,300 290 Climbing Houston Center
Mon 08:57:45 PM 26.8411 -98.0683 170° South 85 98 7,500 295 Climbing Houston Center
Mon 08:58:07 PM 26.8344 -98.0642 151° Southeast 84 97 7,600 98 Climbing Houston Center
Mon 08:58:46 PM 26.8183 -98.0592 165° South 89 102 7,600  Level Houston Center
Mon 08:59:08 PM 26.8086 -98.0603 186° South 88 101 7,600  Level Houston Center
Mon 08:59:48 PM 26.7911 -98.0631 188° South 91 105 7,600  Level Houston Center
Mon 09:00:08 PM 26.7817 -98.0639 185° South 91 105 7,600  Level Houston Center
Mon 09:00:50 PM 26.7633 -98.0611 172° South 94 108 7,600  Level Houston Center
Mon 09:01:15 PM 26.7517 -98.0586 169° South 95 109 7,600  Level Houston Center
Mon 09:01:51 PM 26.7406 -98.0531 156° South 91 105 7,600  Level Houston Center
Mon 09:02:16 PM 26.7278 -98.0522 177° South 90 104 7,600  Level Houston Center
Mon 09:02:53 PM 26.7153 -98.0464 157° South 87 100 7,600  Level Houston Center
Mon 09:03:17 PM 26.7061 -98.0456 175° South 86 99 7,600 97 Level Houston Center
Mon 09:03:55 PM 26.6892 -98.0453 179° South 92 106 7,700 111 Climbing Houston Center
Mon 09:04:11 PM 26.6808 -98.0444 175° South 89 102 7,700  Level Houston Center
Mon 09:04:56 PM 26.6642 -98.0447 181° South 91 105 7,700  Level Houston Center
Mon 09:05:18 PM 26.6533 -98.0433 173° South 91 105 7,700 -97 Level Houston Center
Mon 09:05:58 PM 26.6372 -98.0417 175° South 91 105 7,600 -98 Descending Houston Center
Mon 09:06:19 PM 26.6281 -98.0419 182° South 94 108 7,600  Level Houston Center
Mon 09:06:59 PM 26.6092 -98.0392 173° South 98 113 7,600 -98 Level Houston Center
Mon 09:07:20 PM 26.6000 -98.0361 163° South 100 115 7,500 -97 Descending Houston Center
Mon 09:08:01 PM 26.5833 -98.0336 172° South 95 109 7,500  Level Houston Center
Mon 09:08:21 PM 26.5722 -98.0328 176° South 93 107 7,500  Level Houston Center
Mon 09:09:03 PM 26.5564 -98.0317 176° South 91 105 7,500  Level Houston Center
Mon 09:09:21 PM 26.5469 -98.0314 178° South 90 104 7,500  Level Houston Center
Mon 09:10:04 PM 26.5308 -98.0253 161° South 94 108 7,500 -98 Level Houston Center
Mon 09:10:22 PM 26.5228 -98.0228 164° South 92 106 7,400 -194 Descending Houston Center
Mon 09:11:06 PM 26.5044 -98.0208 175° South 96 110 7,300 -457 Descending Houston Center
Mon 09:12:07 PM 26.4772 -98.0225 183° South 92 106 6,600 -615 Descending Houston Center
Mon 09:12:24 PM 26.4706 -98.0250 199° South 94 108 6,500 -581 Descending Houston Center
Mon 09:13:09 PM 26.4533 -98.0258 182° South 88 101 6,000 -689 Descending Houston Center
Mon 09:13:25 PM 26.4475 -98.0258 180° South 84 97 5,800 -581 Descending Houston Center
Mon 09:14:11 PM 26.4300 -98.0261 181° South 84 97 5,400 -561 Descending Houston Center
Mon 09:15:12 PM 26.4081 -98.0258 179° South 74 85 4,800 -618 Descending Houston Center
Mon 09:16:27 PM 26.3817 -98.0203 169° South 73 84 4,000 -585 Descending Houston Center
Mon 09:17:15 PM 26.3664 -98.0200 179° South 77 89 3,600 -557 Descending Houston Center
Mon 09:18:04 PM 26.3478 -98.0178 174° South 89 102 3,100 -529 Descending Houston Center
Mon 09:18:23 PM 26.3436 -98.0183 187° South 82 94 3,000 -532 Descending Houston Center
Mon 09:19:23 PM 26.3219 -98.0142 170° South 71 82 2,400 -513 Descending Houston Center
Mon 09:20:20 PM 26.3044 -98.0081 163° South 70 81 2,000 -153 Descending Houston Center
Mon 09:21:21 PM 26.2842 -98.0019 165° South 70 81 2,100 -49 Climbing Houston Center
Mon 09:22:23 PM 26.2622 -97.9944 163° South 79 91 1,900 -290 Descending Houston Center
Mon 09:23:25 PM 26.2400 -97.9833 156° South 86 99 1,500 -341 Descending Houston Center
Mon 09:24:26 PM 26.2194 -97.9828 179° South 85 98 1,200 -390 Descending Houston Center
Mon 09:25:28 PM 26.2047 -97.9958 219° Southwest 80 92 700 -390 Descending Houston Center
Mon 09:26:29 PM 26.1886 -97.9850 149° Southeast 57 66 400 -295 Descending Houston Center

Login

Don't have an account? Register now (free) for customized features, flight alerts, and more!